sensor_id;sensor_type;location;lat;lon;timestamp;P1;durP1;ratioP1;P2;durP2;ratioP2
42284;SDS011;27942;47.510;18.966;2022-12-10T00:01:07;3.55;;;2.03;;
42284;SDS011;27942;47.510;18.966;2022-12-10T00:03:35;3.38;;;1.92;;
42284;SDS011;27942;47.510;18.966;2022-12-10T00:06:01;2.90;;;2.53;;
42284;SDS011;27942;47.510;18.966;2022-12-10T00:08:28;2.63;;;2.43;;
42284;SDS011;27942;47.510;18.966;2022-12-10T00:10:53;5.77;;;2.47;;
42284;SDS011;27942;47.510;18.966;2022-12-10T00:13:19;3.90;;;2.87;;
42284;SDS011;27942;47.510;18.966;2022-12-10T00:15:44;5.37;;;2.23;;
42284;SDS011;27942;47.510;18.966;2022-12-10T00:18:09;3.47;;;2.83;;
42284;SDS011;27942;47.510;18.966;2022-12-10T00:20:36;3.03;;;2.70;;
42284;SDS011;27942;47.510;18.966;2022-12-10T00:23:02;4.40;;;2.70;;
42284;SDS011;27942;47.510;18.966;2022-12-10T00:25:27;8.20;;;3.80;;
42284;SDS011;27942;47.510;18.966;2022-12-10T00:27:53;5.83;;;2.60;;
42284;SDS011;27942;47.510;18.966;2022-12-10T00:30:18;5.77;;;4.03;;
42284;SDS011;27942;47.510;18.966;2022-12-10T00:32:43;7.70;;;3.60;;
42284;SDS011;27942;47.510;18.966;2022-12-10T00:35:09;4.97;;;4.00;;
42284;SDS011;27942;47.510;18.966;2022-12-10T00:37:34;5.22;;;3.72;;
42284;SDS011;27942;47.510;18.966;2022-12-10T00:39:59;9.45;;;3.75;;
42284;SDS011;27942;47.510;18.966;2022-12-10T00:42:25;10.70;;;4.32;;
42284;SDS011;27942;47.510;18.966;2022-12-10T00:44:50;13.32;;;4.18;;
42284;SDS011;27942;47.510;18.966;2022-12-10T00:47:15;9.77;;;3.95;;
42284;SDS011;27942;47.510;18.966;2022-12-10T00:49:41;17.08;;;4.88;;
42284;SDS011;27942;47.510;18.966;2022-12-10T00:52:06;7.23;;;4.53;;
42284;SDS011;27942;47.510;18.966;2022-12-10T00:54:31;31.20;;;5.87;;
42284;SDS011;27942;47.510;18.966;2022-12-10T00:56:57;7.90;;;4.45;;
42284;SDS011;27942;47.510;18.966;2022-12-10T00:59:22;7.47;;;3.40;;
42284;SDS011;27942;47.510;18.966;2022-12-10T01:01:47;7.78;;;4.28;;
42284;SDS011;27942;47.510;18.966;2022-12-10T01:04:14;4.43;;;3.67;;
42284;SDS011;27942;47.510;18.966;2022-12-10T01:06:43;6.35;;;3.95;;
42284;SDS011;27942;47.510;18.966;2022-12-10T01:09:10;5.27;;;3.73;;
42284;SDS011;27942;47.510;18.966;2022-12-10T01:11:38;5.23;;;2.87;;
42284;SDS011;27942;47.510;18.966;2022-12-10T01:14:06;2.23;;;2.03;;
42284;SDS011;27942;47.510;18.966;2022-12-10T01:16:33;3.15;;;2.85;;
42284;SDS011;27942;47.510;18.966;2022-12-10T01:18:58;5.57;;;2.40;;
42284;SDS011;27942;47.510;18.966;2022-12-10T01:21:25;4.03;;;3.07;;
42284;SDS011;27942;47.510;18.966;2022-12-10T01:23:51;5.32;;;2.53;;
42284;SDS011;27942;47.510;18.966;2022-12-10T01:26:18;4.70;;;2.50;;
42284;SDS011;27942;47.510;18.966;2022-12-10T01:28:48;3.67;;;2.90;;
42284;SDS011;27942;47.510;18.966;2022-12-10T01:33:39;4.25;;;2.05;;
42284;SDS011;27942;47.510;18.966;2022-12-10T01:36:11;4.68;;;2.08;;
42284;SDS011;27942;47.510;18.966;2022-12-10T01:38:38;4.75;;;2.10;;
42284;SDS011;27942;47.510;18.966;2022-12-10T01:41:03;2.30;;;1.88;;
42284;SDS011;27942;47.510;18.966;2022-12-10T01:43:47;1.95;;;1.85;;
42284;SDS011;27942;47.510;18.966;2022-12-10T01:46:25;2.35;;;1.75;;
42284;SDS011;27942;47.510;18.966;2022-12-10T01:51:18;1.65;;;1.15;;
42284;SDS011;27942;47.510;18.966;2022-12-10T01:53:45;1.90;;;1.60;;
42284;SDS011;27942;47.510;18.966;2022-12-10T01:56:11;1.63;;;1.50;;
42284;SDS011;27942;47.510;18.966;2022-12-10T01:58:38;1.55;;;1.45;;
42284;SDS011;27942;47.510;18.966;2022-12-10T02:01:11;3.75;;;1.95;;
42284;SDS011;27942;47.510;18.966;2022-12-10T02:09:37;2.77;;;1.40;;
42284;SDS011;27942;47.510;18.966;2022-12-10T02:12:18;2.63;;;1.57;;
42284;SDS011;27942;47.510;18.966;2022-12-10T02:19:52;2.57;;;1.33;;
42284;SDS011;27942;47.510;18.966;2022-12-10T02:22:26;1.58;;;1.48;;
42284;SDS011;27942;47.510;18.966;2022-12-10T02:24:54;1.63;;;1.53;;
42284;SDS011;27942;47.510;18.966;2022-12-10T02:29:56;1.90;;;1.77;;
42284;SDS011;27942;47.510;18.966;2022-12-10T02:34:54;1.80;;;1.70;;
42284;SDS011;27942;47.510;18.966;2022-12-10T02:37:30;3.43;;;2.27;;
42284;SDS011;27942;47.510;18.966;2022-12-10T02:40:01;2.33;;;2.13;;
42284;SDS011;27942;47.510;18.966;2022-12-10T02:42:32;1.23;;;1.23;;
42284;SDS011;27942;47.510;18.966;2022-12-10T02:45:03;3.20;;;2.27;;
42284;SDS011;27942;47.510;18.966;2022-12-10T02:47:29;2.70;;;1.70;;
42284;SDS011;27942;47.510;18.966;2022-12-10T02:49:55;1.53;;;1.43;;
42284;SDS011;27942;47.510;18.966;2022-12-10T02:52:23;1.97;;;1.77;;
42284;SDS011;27942;47.510;18.966;2022-12-10T02:54:49;2.27;;;1.30;;
42284;SDS011;27942;47.510;18.966;2022-12-10T03:05:33;1.40;;;1.30;;
42284;SDS011;27942;47.510;18.966;2022-12-10T03:08:21;1.17;;;1.17;;
42284;SDS011;27942;47.510;18.966;2022-12-10T03:10:57;1.10;;;1.07;;
42284;SDS011;27942;47.510;18.966;2022-12-10T03:14:14;0.97;;;0.97;;
42284;SDS011;27942;47.510;18.966;2022-12-10T03:16:38;1.23;;;1.13;;
42284;SDS011;27942;47.510;18.966;2022-12-10T03:19:10;0.80;;;0.80;;
42284;SDS011;27942;47.510;18.966;2022-12-10T03:21:37;1.10;;;1.10;;
42284;SDS011;27942;47.510;18.966;2022-12-10T03:24:05;0.80;;;0.80;;
42284;SDS011;27942;47.510;18.966;2022-12-10T03:26:32;0.90;;;0.90;;
42284;SDS011;27942;47.510;18.966;2022-12-10T03:29:02;1.33;;;1.23;;
42284;SDS011;27942;47.510;18.966;2022-12-10T03:31:31;1.30;;;1.30;;
42284;SDS011;27942;47.510;18.966;2022-12-10T03:33:59;1.70;;;1.60;;
42284;SDS011;27942;47.510;18.966;2022-12-10T03:36:25;3.37;;;2.40;;
42284;SDS011;27942;47.510;18.966;2022-12-10T03:38:52;2.37;;;2.17;;
42284;SDS011;27942;47.510;18.966;2022-12-10T03:41:18;3.07;;;2.77;;
42284;SDS011;27942;47.510;18.966;2022-12-10T03:43:51;2.27;;;2.10;;
42284;SDS011;27942;47.510;18.966;2022-12-10T03:46:18;3.43;;;2.70;;
42284;SDS011;27942;47.510;18.966;2022-12-10T03:48:44;3.03;;;2.83;;
42284;SDS011;27942;47.510;18.966;2022-12-10T03:51:09;2.97;;;2.67;;
42284;SDS011;27942;47.510;18.966;2022-12-10T03:53:35;1.70;;;1.57;;
42284;SDS011;27942;47.510;18.966;2022-12-10T03:56:00;2.53;;;2.30;;
42284;SDS011;27942;47.510;18.966;2022-12-10T03:58:25;1.63;;;1.53;;
42284;SDS011;27942;47.510;18.966;2022-12-10T04:00:50;2.67;;;2.10;;
42284;SDS011;27942;47.510;18.966;2022-12-10T04:03:16;1.67;;;1.57;;
42284;SDS011;27942;47.510;18.966;2022-12-10T04:05:41;2.90;;;1.60;;
42284;SDS011;27942;47.510;18.966;2022-12-10T04:08:06;3.60;;;1.97;;
42284;SDS011;27942;47.510;18.966;2022-12-10T04:10:34;2.33;;;2.17;;
42284;SDS011;27942;47.510;18.966;2022-12-10T04:13:01;2.40;;;2.13;;
42284;SDS011;27942;47.510;18.966;2022-12-10T04:15:46;2.63;;;2.13;;
42284;SDS011;27942;47.510;18.966;2022-12-10T04:18:30;1.77;;;1.67;;
42284;SDS011;27942;47.510;18.966;2022-12-10T04:20:55;1.27;;;1.27;;
42284;SDS011;27942;47.510;18.966;2022-12-10T04:23:39;1.60;;;1.50;;
42284;SDS011;27942;47.510;18.966;2022-12-10T04:26:23;2.30;;;1.00;;
42284;SDS011;27942;47.510;18.966;2022-12-10T04:29:07;3.20;;;2.03;;
42284;SDS011;27942;47.510;18.966;2022-12-10T04:31:32;1.70;;;1.60;;
42284;SDS011;27942;47.510;18.966;2022-12-10T04:33:58;1.53;;;1.43;;
42284;SDS011;27942;47.510;18.966;2022-12-10T04:36:23;1.40;;;1.30;;
42284;SDS011;27942;47.510;18.966;2022-12-10T04:38:48;2.90;;;1.53;;
42284;SDS011;27942;47.510;18.966;2022-12-10T04:41:14;2.17;;;2.07;;
42284;SDS011;27942;47.510;18.966;2022-12-10T04:43:40;2.13;;;1.57;;
42284;SDS011;27942;47.510;18.966;2022-12-10T04:46:09;1.92;;;1.83;;
42284;SDS011;27942;47.510;18.966;2022-12-10T04:48:36;2.10;;;1.73;;
42284;SDS011;27942;47.510;18.966;2022-12-10T04:51:02;2.37;;;1.23;;
42284;SDS011;27942;47.510;18.966;2022-12-10T04:53:28;2.00;;;1.90;;
42284;SDS011;27942;47.510;18.966;2022-12-10T04:55:53;4.43;;;1.83;;
42284;SDS011;27942;47.510;18.966;2022-12-10T04:58:18;0.90;;;0.90;;
42284;SDS011;27942;47.510;18.966;2022-12-10T05:00:43;1.80;;;1.70;;
42284;SDS011;27942;47.510;18.966;2022-12-10T05:03:09;1.53;;;1.43;;
42284;SDS011;27942;47.510;18.966;2022-12-10T05:05:34;1.80;;;1.13;;
42284;SDS011;27942;47.510;18.966;2022-12-10T05:08:00;1.63;;;1.53;;
42284;SDS011;27942;47.510;18.966;2022-12-10T05:10:25;2.63;;;2.13;;
42284;SDS011;27942;47.510;18.966;2022-12-10T05:12:51;2.47;;;2.07;;
42284;SDS011;27942;47.510;18.966;2022-12-10T05:15:16;1.77;;;1.50;;
42284;SDS011;27942;47.510;18.966;2022-12-10T05:17:42;3.07;;;2.57;;
42284;SDS011;27942;47.510;18.966;2022-12-10T05:20:08;1.47;;;1.43;;
42284;SDS011;27942;47.510;18.966;2022-12-10T05:22:34;3.90;;;2.73;;
42284;SDS011;27942;47.510;18.966;2022-12-10T05:25:17;1.97;;;1.80;;
42284;SDS011;27942;47.510;18.966;2022-12-10T05:27:43;1.90;;;1.80;;
42284;SDS011;27942;47.510;18.966;2022-12-10T05:30:08;1.57;;;1.47;;
42284;SDS011;27942;47.510;18.966;2022-12-10T05:32:35;1.80;;;1.70;;
42284;SDS011;27942;47.510;18.966;2022-12-10T05:35:00;1.37;;;1.27;;
42284;SDS011;27942;47.510;18.966;2022-12-10T05:37:26;3.07;;;2.77;;
42284;SDS011;27942;47.510;18.966;2022-12-10T05:39:52;3.00;;;2.73;;
42284;SDS011;27942;47.510;18.966;2022-12-10T05:42:17;3.07;;;2.20;;
42284;SDS011;27942;47.510;18.966;2022-12-10T05:44:43;1.93;;;1.83;;
42284;SDS011;27942;47.510;18.966;2022-12-10T05:47:08;1.50;;;1.40;;
42284;SDS011;27942;47.510;18.966;2022-12-10T05:49:33;2.10;;;1.90;;
42284;SDS011;27942;47.510;18.966;2022-12-10T05:51:59;2.63;;;2.43;;
42284;SDS011;27942;47.510;18.966;2022-12-10T05:54:24;4.57;;;2.53;;
42284;SDS011;27942;47.510;18.966;2022-12-10T05:56:49;2.77;;;1.63;;
42284;SDS011;27942;47.510;18.966;2022-12-10T05:59:15;2.07;;;1.93;;
42284;SDS011;27942;47.510;18.966;2022-12-10T06:01:40;6.20;;;2.37;;
42284;SDS011;27942;47.510;18.966;2022-12-10T06:04:05;3.03;;;2.47;;
42284;SDS011;27942;47.510;18.966;2022-12-10T06:06:32;2.23;;;1.23;;
42284;SDS011;27942;47.510;18.966;2022-12-10T06:09:02;2.97;;;1.70;;
42284;SDS011;27942;47.510;18.966;2022-12-10T06:11:29;4.93;;;2.03;;
42284;SDS011;27942;47.510;18.966;2022-12-10T06:13:55;4.23;;;1.73;;
42284;SDS011;27942;47.510;18.966;2022-12-10T06:16:22;3.67;;;3.43;;
42284;SDS011;27942;47.510;18.966;2022-12-10T06:18:48;3.70;;;2.07;;
42284;SDS011;27942;47.510;18.966;2022-12-10T06:21:15;3.20;;;2.23;;
42284;SDS011;27942;47.510;18.966;2022-12-10T06:23:41;2.07;;;1.97;;
42284;SDS011;27942;47.510;18.966;2022-12-10T06:26:08;2.67;;;2.03;;
42284;SDS011;27942;47.510;18.966;2022-12-10T06:28:38;3.13;;;2.30;;
42284;SDS011;27942;47.510;18.966;2022-12-10T06:31:04;1.53;;;1.50;;
42284;SDS011;27942;47.510;18.966;2022-12-10T06:33:29;2.43;;;2.33;;
42284;SDS011;27942;47.510;18.966;2022-12-10T06:35:55;2.63;;;2.30;;
42284;SDS011;27942;47.510;18.966;2022-12-10T06:38:20;2.43;;;2.33;;
42284;SDS011;27942;47.510;18.966;2022-12-10T06:40:46;2.70;;;2.20;;
42284;SDS011;27942;47.510;18.966;2022-12-10T06:43:11;2.93;;;2.73;;
42284;SDS011;27942;47.510;18.966;2022-12-10T06:45:40;3.10;;;1.97;;
42284;SDS011;27942;47.510;18.966;2022-12-10T06:48:06;3.20;;;2.00;;
42284;SDS011;27942;47.510;18.966;2022-12-10T06:50:32;1.40;;;1.17;;
42284;SDS011;27942;47.510;18.966;2022-12-10T06:52:57;4.03;;;2.33;;
42284;SDS011;27942;47.510;18.966;2022-12-10T06:55:23;2.60;;;2.00;;
42284;SDS011;27942;47.510;18.966;2022-12-10T06:57:51;4.70;;;2.07;;
42284;SDS011;27942;47.510;18.966;2022-12-10T07:00:17;3.10;;;1.77;;
42284;SDS011;27942;47.510;18.966;2022-12-10T07:02:43;2.67;;;2.47;;
42284;SDS011;27942;47.510;18.966;2022-12-10T07:05:08;2.90;;;2.60;;
42284;SDS011;27942;47.510;18.966;2022-12-10T07:07:34;3.90;;;2.27;;
42284;SDS011;27942;47.510;18.966;2022-12-10T07:10:00;1.30;;;1.20;;
42284;SDS011;27942;47.510;18.966;2022-12-10T07:12:25;2.20;;;1.97;;
42284;SDS011;27942;47.510;18.966;2022-12-10T07:14:52;2.30;;;1.87;;
42284;SDS011;27942;47.510;18.966;2022-12-10T07:17:17;4.30;;;2.63;;
42284;SDS011;27942;47.510;18.966;2022-12-10T07:19:42;3.47;;;1.97;;
42284;SDS011;27942;47.510;18.966;2022-12-10T07:22:08;3.47;;;3.17;;
42284;SDS011;27942;47.510;18.966;2022-12-10T07:24:33;2.10;;;1.97;;
42284;SDS011;27942;47.510;18.966;2022-12-10T07:26:58;2.77;;;2.57;;
42284;SDS011;27942;47.510;18.966;2022-12-10T07:29:24;2.93;;;2.73;;
42284;SDS011;27942;47.510;18.966;2022-12-10T07:31:51;2.30;;;2.13;;
42284;SDS011;27942;47.510;18.966;2022-12-10T07:34:17;5.93;;;3.33;;
42284;SDS011;27942;47.510;18.966;2022-12-10T07:36:42;7.17;;;3.10;;
42284;SDS011;27942;47.510;18.966;2022-12-10T07:39:09;3.90;;;3.30;;
42284;SDS011;27942;47.510;18.966;2022-12-10T07:41:41;4.60;;;3.90;;
42284;SDS011;27942;47.510;18.966;2022-12-10T07:44:08;6.43;;;3.13;;
42284;SDS011;27942;47.510;18.966;2022-12-10T07:46:36;5.93;;;3.87;;
42284;SDS011;27942;47.510;18.966;2022-12-10T07:49:03;3.23;;;2.80;;
42284;SDS011;27942;47.510;18.966;2022-12-10T07:51:28;11.83;;;4.20;;
42284;SDS011;27942;47.510;18.966;2022-12-10T07:53:54;3.70;;;2.93;;
42284;SDS011;27942;47.510;18.966;2022-12-10T07:56:20;2.80;;;2.60;;
42284;SDS011;27942;47.510;18.966;2022-12-10T07:58:46;4.53;;;4.13;;
42284;SDS011;27942;47.510;18.966;2022-12-10T08:01:16;2.90;;;2.70;;
42284;SDS011;27942;47.510;18.966;2022-12-10T08:03:44;4.23;;;3.77;;
42284;SDS011;27942;47.510;18.966;2022-12-10T08:06:14;5.83;;;3.90;;
42284;SDS011;27942;47.510;18.966;2022-12-10T08:08:41;3.37;;;3.07;;
42284;SDS011;27942;47.510;18.966;2022-12-10T08:11:08;4.97;;;4.33;;
42284;SDS011;27942;47.510;18.966;2022-12-10T08:13:34;2.80;;;2.60;;
42284;SDS011;27942;47.510;18.966;2022-12-10T08:16:00;3.17;;;2.70;;
42284;SDS011;27942;47.510;18.966;2022-12-10T08:18:27;7.05;;;3.47;;
42284;SDS011;27942;47.510;18.966;2022-12-10T08:20:53;4.53;;;3.47;;
42284;SDS011;27942;47.510;18.966;2022-12-10T08:23:18;2.53;;;2.30;;
42284;SDS011;27942;47.510;18.966;2022-12-10T08:25:43;5.23;;;3.00;;
42284;SDS011;27942;47.510;18.966;2022-12-10T08:28:09;4.37;;;3.60;;
42284;SDS011;27942;47.510;18.966;2022-12-10T08:30:34;7.47;;;2.77;;
42284;SDS011;27942;47.510;18.966;2022-12-10T08:33:00;5.50;;;3.80;;
42284;SDS011;27942;47.510;18.966;2022-12-10T08:35:25;5.90;;;4.03;;
42284;SDS011;27942;47.510;18.966;2022-12-10T08:37:50;5.20;;;3.13;;
42284;SDS011;27942;47.510;18.966;2022-12-10T08:40:16;2.40;;;2.30;;
42284;SDS011;27942;47.510;18.966;2022-12-10T08:42:41;6.67;;;3.47;;
42284;SDS011;27942;47.510;18.966;2022-12-10T08:45:06;3.20;;;2.90;;
42284;SDS011;27942;47.510;18.966;2022-12-10T08:47:32;5.40;;;2.70;;
42284;SDS011;27942;47.510;18.966;2022-12-10T08:49:58;5.43;;;3.77;;
42284;SDS011;27942;47.510;18.966;2022-12-10T08:52:23;3.67;;;3.03;;
42284;SDS011;27942;47.510;18.966;2022-12-10T08:54:48;6.70;;;4.20;;
42284;SDS011;27942;47.510;18.966;2022-12-10T08:57:14;5.97;;;3.83;;
42284;SDS011;27942;47.510;18.966;2022-12-10T08:59:39;2.90;;;2.67;;
42284;SDS011;27942;47.510;18.966;2022-12-10T09:02:04;6.47;;;4.10;;
42284;SDS011;27942;47.510;18.966;2022-12-10T09:04:30;3.30;;;3.00;;
42284;SDS011;27942;47.510;18.966;2022-12-10T09:06:55;3.93;;;3.43;;
42284;SDS011;27942;47.510;18.966;2022-12-10T09:09:20;3.80;;;3.50;;
42284;SDS011;27942;47.510;18.966;2022-12-10T09:11:46;8.23;;;3.13;;
42284;SDS011;27942;47.510;18.966;2022-12-10T09:14:11;3.07;;;2.50;;
42284;SDS011;27942;47.510;18.966;2022-12-10T09:16:37;4.23;;;3.10;;
42284;SDS011;27942;47.510;18.966;2022-12-10T09:19:06;2.43;;;2.23;;
42284;SDS011;27942;47.510;18.966;2022-12-10T09:21:32;3.43;;;2.90;;
42284;SDS011;27942;47.510;18.966;2022-12-10T09:23:58;2.97;;;2.33;;
42284;SDS011;27942;47.510;18.966;2022-12-10T09:26:24;3.60;;;2.60;;
42284;SDS011;27942;47.510;18.966;2022-12-10T09:28:50;3.23;;;2.93;;
42284;SDS011;27942;47.510;18.966;2022-12-10T09:31:17;3.33;;;3.03;;
42284;SDS011;27942;47.510;18.966;2022-12-10T09:33:44;4.03;;;3.03;;
42284;SDS011;27942;47.510;18.966;2022-12-10T09:36:10;3.63;;;3.33;;
42284;SDS011;27942;47.510;18.966;2022-12-10T09:38:38;6.07;;;3.35;;
42284;SDS011;27942;47.510;18.966;2022-12-10T09:41:10;4.07;;;3.77;;
42284;SDS011;27942;47.510;18.966;2022-12-10T09:43:49;4.43;;;2.93;;
42284;SDS011;27942;47.510;18.966;2022-12-10T09:46:25;3.80;;;3.50;;
42284;SDS011;27942;47.510;18.966;2022-12-10T09:51:31;5.37;;;3.90;;
42284;SDS011;27942;47.510;18.966;2022-12-10T09:54:01;3.73;;;3.43;;
42284;SDS011;27942;47.510;18.966;2022-12-10T09:56:33;2.75;;;2.53;;
42284;SDS011;27942;47.510;18.966;2022-12-10T09:59:04;4.80;;;2.80;;
42284;SDS011;27942;47.510;18.966;2022-12-10T10:01:41;3.13;;;2.93;;
42284;SDS011;27942;47.510;18.966;2022-12-10T10:04:08;4.33;;;3.37;;
42284;SDS011;27942;47.510;18.966;2022-12-10T10:06:34;3.47;;;3.23;;
42284;SDS011;27942;47.510;18.966;2022-12-10T10:09:00;4.23;;;3.30;;
42284;SDS011;27942;47.510;18.966;2022-12-10T10:11:28;2.20;;;2.10;;
42284;SDS011;27942;47.510;18.966;2022-12-10T10:14:18;2.50;;;2.00;;
42284;SDS011;27942;47.510;18.966;2022-12-10T10:16:51;3.17;;;2.67;;
42284;SDS011;27942;47.510;18.966;2022-12-10T10:19:27;6.30;;;3.33;;
42284;SDS011;27942;47.510;18.966;2022-12-10T10:21:58;3.73;;;3.33;;
42284;SDS011;27942;47.510;18.966;2022-12-10T10:24:25;6.57;;;2.87;;
42284;SDS011;27942;47.510;18.966;2022-12-10T10:26:58;6.93;;;3.17;;
42284;SDS011;27942;47.510;18.966;2022-12-10T10:29:36;2.60;;;2.40;;
42284;SDS011;27942;47.510;18.966;2022-12-10T10:32:21;2.83;;;2.63;;
42284;SDS011;27942;47.510;18.966;2022-12-10T10:34:55;5.70;;;3.37;;
42284;SDS011;27942;47.510;18.966;2022-12-10T10:37:26;4.50;;;2.63;;
42284;SDS011;27942;47.510;18.966;2022-12-10T10:39:54;5.90;;;5.27;;
42284;SDS011;27942;47.510;18.966;2022-12-10T10:45:01;3.07;;;2.23;;
42284;SDS011;27942;47.510;18.966;2022-12-10T10:47:50;8.10;;;5.53;;
42284;SDS011;27942;47.510;18.966;2022-12-10T10:50:29;6.87;;;3.70;;
42284;SDS011;27942;47.510;18.966;2022-12-10T10:52:54;4.73;;;4.27;;
42284;SDS011;27942;47.510;18.966;2022-12-10T10:55:33;7.47;;;5.60;;
42284;SDS011;27942;47.510;18.966;2022-12-10T10:58:00;4.47;;;4.00;;
42284;SDS011;27942;47.510;18.966;2022-12-10T11:00:26;5.47;;;4.10;;
42284;SDS011;27942;47.510;18.966;2022-12-10T11:02:51;6.57;;;3.13;;
42284;SDS011;27942;47.510;18.966;2022-12-10T11:05:20;9.17;;;5.03;;
42284;SDS011;27942;47.510;18.966;2022-12-10T11:07:56;5.60;;;3.73;;
42284;SDS011;27942;47.510;18.966;2022-12-10T11:10:24;5.27;;;3.87;;
42284;SDS011;27942;47.510;18.966;2022-12-10T11:12:58;5.93;;;3.30;;
42284;SDS011;27942;47.510;18.966;2022-12-10T11:21:00;3.83;;;2.77;;
42284;SDS011;27942;47.510;18.966;2022-12-10T11:23:30;4.30;;;3.37;;
42284;SDS011;27942;47.510;18.966;2022-12-10T11:26:08;6.77;;;4.60;;
42284;SDS011;27942;47.510;18.966;2022-12-10T11:34:15;6.27;;;4.40;;
42284;SDS011;27942;47.510;18.966;2022-12-10T11:42:51;3.33;;;3.03;;
42284;SDS011;27942;47.510;18.966;2022-12-10T11:50:47;10.97;;;4.80;;
42284;SDS011;27942;47.510;18.966;2022-12-10T12:07:30;6.20;;;4.50;;
42284;SDS011;27942;47.510;18.966;2022-12-10T12:13:18;7.53;;;5.07;;
42284;SDS011;27942;47.510;18.966;2022-12-10T12:15:31;7.43;;;5.30;;
42284;SDS011;27942;47.510;18.966;2022-12-10T12:18:04;4.03;;;3.60;;
42284;SDS011;27942;47.510;18.966;2022-12-10T12:20:46;7.47;;;4.00;;
42284;SDS011;27942;47.510;18.966;2022-12-10T12:23:28;4.57;;;3.93;;
42284;SDS011;27942;47.510;18.966;2022-12-10T12:26:10;5.13;;;2.63;;
42284;SDS011;27942;47.510;18.966;2022-12-10T12:29:14;4.53;;;4.13;;
42284;SDS011;27942;47.510;18.966;2022-12-10T12:32:01;5.37;;;4.67;;
42284;SDS011;27942;47.510;18.966;2022-12-10T12:37:57;6.37;;;3.53;;
42284;SDS011;27942;47.510;18.966;2022-12-10T12:42:59;4.37;;;3.97;;
42284;SDS011;27942;47.510;18.966;2022-12-10T12:45:48;3.57;;;2.90;;
42284;SDS011;27942;47.510;18.966;2022-12-10T12:51:24;12.13;;;5.50;;
42284;SDS011;27942;47.510;18.966;2022-12-10T12:53:55;5.87;;;4.13;;
42284;SDS011;27942;47.510;18.966;2022-12-10T13:05:12;4.43;;;3.75;;
42284;SDS011;27942;47.510;18.966;2022-12-10T13:07:41;5.37;;;4.20;;
42284;SDS011;27942;47.510;18.966;2022-12-10T13:10:08;4.87;;;3.60;;
42284;SDS011;27942;47.510;18.966;2022-12-10T13:12:47;5.03;;;4.17;;
42284;SDS011;27942;47.510;18.966;2022-12-10T13:15:34;5.90;;;4.97;;
42284;SDS011;27942;47.510;18.966;2022-12-10T13:20:40;8.27;;;3.80;;
42284;SDS011;27942;47.510;18.966;2022-12-10T13:31:33;5.20;;;4.63;;
42284;SDS011;27942;47.510;18.966;2022-12-10T13:36:36;6.57;;;4.77;;
42284;SDS011;27942;47.510;18.966;2022-12-10T13:39:35;3.73;;;3.13;;
42284;SDS011;27942;47.510;18.966;2022-12-10T13:48:15;3.97;;;3.33;;
42284;SDS011;27942;47.510;18.966;2022-12-10T13:58:42;3.63;;;3.20;;
42284;SDS011;27942;47.510;18.966;2022-12-10T14:04:14;5.50;;;4.40;;
42284;SDS011;27942;47.510;18.966;2022-12-10T14:09:19;3.60;;;3.30;;
42284;SDS011;27942;47.510;18.966;2022-12-10T14:11:53;5.00;;;4.00;;
42284;SDS011;27942;47.510;18.966;2022-12-10T14:14:29;5.03;;;3.67;;
42284;SDS011;27942;47.510;18.966;2022-12-10T14:16:59;5.53;;;3.30;;
42284;SDS011;27942;47.510;18.966;2022-12-10T14:19:27;3.10;;;2.90;;
42284;SDS011;27942;47.510;18.966;2022-12-10T14:21:54;4.37;;;3.40;;
42284;SDS011;27942;47.510;18.966;2022-12-10T14:24:34;4.90;;;3.33;;
42284;SDS011;27942;47.510;18.966;2022-12-10T14:27:12;8.90;;;4.23;;
42284;SDS011;27942;47.510;18.966;2022-12-10T14:29:45;6.15;;;4.63;;
42284;SDS011;27942;47.510;18.966;2022-12-10T14:32:36;5.50;;;3.03;;
42284;SDS011;27942;47.510;18.966;2022-12-10T14:35:04;6.53;;;3.97;;
42284;SDS011;27942;47.510;18.966;2022-12-10T14:40:00;3.42;;;3.08;;
42284;SDS011;27942;47.510;18.966;2022-12-10T14:42:26;7.20;;;3.33;;
42284;SDS011;27942;47.510;18.966;2022-12-10T14:44:59;3.63;;;2.67;;
42284;SDS011;27942;47.510;18.966;2022-12-10T14:47:27;3.20;;;2.50;;
42284;SDS011;27942;47.510;18.966;2022-12-10T14:50:00;2.90;;;2.70;;
42284;SDS011;27942;47.510;18.966;2022-12-10T14:52:38;4.03;;;3.63;;
42284;SDS011;27942;47.510;18.966;2022-12-10T14:55:10;4.40;;;4.00;;
42284;SDS011;27942;47.510;18.966;2022-12-10T14:57:38;2.73;;;2.53;;
42284;SDS011;27942;47.510;18.966;2022-12-10T15:00:17;6.47;;;2.53;;
42284;SDS011;27942;47.510;18.966;2022-12-10T15:02:45;5.70;;;3.80;;
42284;SDS011;27942;47.510;18.966;2022-12-10T15:05:21;3.60;;;3.23;;
42284;SDS011;27942;47.510;18.966;2022-12-10T15:07:56;3.60;;;3.17;;
42284;SDS011;27942;47.510;18.966;2022-12-10T15:15:58;2.78;;;2.40;;
42284;SDS011;27942;47.510;18.966;2022-12-10T15:18:34;5.17;;;3.63;;
42284;SDS011;27942;47.510;18.966;2022-12-10T15:23:47;6.30;;;2.80;;
42284;SDS011;27942;47.510;18.966;2022-12-10T15:28:48;3.37;;;2.77;;
42284;SDS011;27942;47.510;18.966;2022-12-10T15:31:19;5.75;;;2.83;;
42284;SDS011;27942;47.510;18.966;2022-12-10T15:33:58;4.03;;;2.90;;
42284;SDS011;27942;47.510;18.966;2022-12-10T15:36:36;3.60;;;2.67;;
42284;SDS011;27942;47.510;18.966;2022-12-10T15:39:12;2.57;;;2.37;;
42284;SDS011;27942;47.510;18.966;2022-12-10T15:41:49;3.60;;;3.10;;
42284;SDS011;27942;47.510;18.966;2022-12-10T15:47:19;3.03;;;2.73;;
42284;SDS011;27942;47.510;18.966;2022-12-10T15:49:47;2.80;;;2.40;;
42284;SDS011;27942;47.510;18.966;2022-12-10T15:54:41;4.53;;;3.07;;
42284;SDS011;27942;47.510;18.966;2022-12-10T15:57:16;7.30;;;3.90;;
42284;SDS011;27942;47.510;18.966;2022-12-10T15:59:43;3.90;;;2.53;;
42284;SDS011;27942;47.510;18.966;2022-12-10T16:07:36;2.83;;;2.63;;
42284;SDS011;27942;47.510;18.966;2022-12-10T16:10:03;6.23;;;2.90;;
42284;SDS011;27942;47.510;18.966;2022-12-10T16:12:29;3.77;;;2.90;;
42284;SDS011;27942;47.510;18.966;2022-12-10T16:14:58;3.05;;;2.85;;
42284;SDS011;27942;47.510;18.966;2022-12-10T16:17:27;2.93;;;2.47;;
42284;SDS011;27942;47.510;18.966;2022-12-10T16:19:57;3.33;;;3.03;;
42284;SDS011;27942;47.510;18.966;2022-12-10T16:22:24;5.50;;;3.67;;
42284;SDS011;27942;47.510;18.966;2022-12-10T16:24:50;7.37;;;3.30;;
42284;SDS011;27942;47.510;18.966;2022-12-10T16:27:16;7.90;;;3.17;;
42284;SDS011;27942;47.510;18.966;2022-12-10T16:29:42;5.17;;;3.23;;
42284;SDS011;27942;47.510;18.966;2022-12-10T16:32:09;3.37;;;2.70;;
42284;SDS011;27942;47.510;18.966;2022-12-10T16:34:41;2.87;;;2.10;;
42284;SDS011;27942;47.510;18.966;2022-12-10T16:37:08;2.23;;;2.00;;
42284;SDS011;27942;47.510;18.966;2022-12-10T16:39:35;3.20;;;2.67;;
42284;SDS011;27942;47.510;18.966;2022-12-10T16:42:01;3.83;;;3.03;;
42284;SDS011;27942;47.510;18.966;2022-12-10T16:44:26;6.97;;;4.80;;
42284;SDS011;27942;47.510;18.966;2022-12-10T16:46:52;2.67;;;2.27;;
42284;SDS011;27942;47.510;18.966;2022-12-10T16:49:18;3.00;;;2.80;;
42284;SDS011;27942;47.510;18.966;2022-12-10T16:51:44;2.57;;;2.37;;
42284;SDS011;27942;47.510;18.966;2022-12-10T16:54:10;4.07;;;3.77;;
42284;SDS011;27942;47.510;18.966;2022-12-10T16:56:37;4.20;;;3.40;;
42284;SDS011;27942;47.510;18.966;2022-12-10T16:59:03;3.00;;;2.70;;
42284;SDS011;27942;47.510;18.966;2022-12-10T17:01:29;5.77;;;2.77;;
42284;SDS011;27942;47.510;18.966;2022-12-10T17:03:58;6.22;;;3.22;;
42284;SDS011;27942;47.510;18.966;2022-12-10T17:06:24;2.73;;;2.53;;
42284;SDS011;27942;47.510;18.966;2022-12-10T17:08:51;4.97;;;3.57;;
42284;SDS011;27942;47.510;18.966;2022-12-10T17:11:18;2.90;;;2.60;;
42284;SDS011;27942;47.510;18.966;2022-12-10T17:14:05;2.63;;;2.40;;